Startpagina
METAR-TAF:

METAR-TAF

Vliegvelden :

Bonriki International Airport

Tarawa, Kiribati

breedte: 01-21N, lengte: 172-55E, hoogte: 2 m

Actueel weer

Dit bericht is 30 minuten geleden gemaakt, om 01:00 UTC
Wind 7 kt uit het noordoosten
Temperatuur 31°C
Vochtigheid 71%
Druk 1006 hPa
Zicht 10 km of meer
Weinig wolken op 1800 ft, Stapelwolken.
Verspreide wolken op 30000 ft

METAR: NGTA 180100Z 05007KT 9999 FEW018TCU SCT300 31/25 Q1006

Tijdstip: 15:30 (01:30 UTC)

Verwachting

Dit bericht is 2 uur en het 27 minuten geleden gemaakt, om 23:03 UTC
Verwachting geldig van 18 om 00 UTC tot 18 om 24 UTC
Wind 8 kt uit het oosten
Zicht 10 km of meer
Weinig wolken op 2000 ft
Gebroken wolken op 10000 ft
lichte regenbuien

TAF: NGTA 172303Z 1800/1824 09008KT 9999 -SHRA FEW020 BKN100

Waarnemingen en weersverwachtingen van meer dan 4000 vliegvelden (METAR en TAF).

De beschikbare stations zijn de gele en rode punten op de kaart.

Ga met uw muis naar het station om de naam te zien.

Klik dan om waarnemingen en weersverwachtingen te zien.

kaart wijzigen: klik op de groene knoppen met een zwart kruis om in te zoomen, op de groene knop met een streepje om uit te zoomen of op de groene pijlen voor aangrenzende kaarten.


METAR-TAF: